sensor_id;sensor_type;location;lat;lon;timestamp;P1;durP1;ratioP1;P2;durP2;ratioP2
37785;SDS011;23625;48.784;9.336;2023-02-27T00:00:24;9.65;;;3.05;;
37785;SDS011;23625;48.784;9.336;2023-02-27T00:02:50;7.28;;;3.10;;
37785;SDS011;23625;48.784;9.336;2023-02-27T00:05:16;4.75;;;2.20;;
37785;SDS011;23625;48.784;9.336;2023-02-27T00:07:43;5.07;;;2.38;;
37785;SDS011;23625;48.784;9.336;2023-02-27T00:10:09;4.68;;;1.60;;
37785;SDS011;23625;48.784;9.336;2023-02-27T00:12:36;6.38;;;1.83;;
37785;SDS011;23625;48.784;9.336;2023-02-27T00:15:10;3.10;;;1.63;;
37785;SDS011;23625;48.784;9.336;2023-02-27T00:17:39;6.30;;;2.67;;
37785;SDS011;23625;48.784;9.336;2023-02-27T00:20:06;16.05;;;6.55;;
37785;SDS011;23625;48.784;9.336;2023-02-27T00:22:35;6.68;;;2.85;;
37785;SDS011;23625;48.784;9.336;2023-02-27T00:25:01;7.45;;;2.42;;
37785;SDS011;23625;48.784;9.336;2023-02-27T00:27:26;3.22;;;1.50;;
37785;SDS011;23625;48.784;9.336;2023-02-27T00:29:52;4.65;;;2.05;;
37785;SDS011;23625;48.784;9.336;2023-02-27T00:32:18;10.93;;;3.85;;
37785;SDS011;23625;48.784;9.336;2023-02-27T00:34:43;8.85;;;1.98;;
37785;SDS011;23625;48.784;9.336;2023-02-27T00:37:10;3.95;;;1.40;;
37785;SDS011;23625;48.784;9.336;2023-02-27T00:39:35;5.88;;;1.80;;
37785;SDS011;23625;48.784;9.336;2023-02-27T00:42:01;7.05;;;1.63;;
37785;SDS011;23625;48.784;9.336;2023-02-27T00:44:26;4.72;;;1.45;;
37785;SDS011;23625;48.784;9.336;2023-02-27T00:46:52;2.92;;;1.50;;
37785;SDS011;23625;48.784;9.336;2023-02-27T00:49:18;6.07;;;1.60;;
37785;SDS011;23625;48.784;9.336;2023-02-27T00:51:44;3.70;;;1.48;;
37785;SDS011;23625;48.784;9.336;2023-02-27T00:54:10;2.80;;;1.35;;
37785;SDS011;23625;48.784;9.336;2023-02-27T00:56:36;4.82;;;1.88;;
37785;SDS011;23625;48.784;9.336;2023-02-27T00:59:02;5.18;;;1.40;;
37785;SDS011;23625;48.784;9.336;2023-02-27T01:01:27;4.85;;;1.50;;
37785;SDS011;23625;48.784;9.336;2023-02-27T01:03:53;4.65;;;1.90;;
37785;SDS011;23625;48.784;9.336;2023-02-27T01:06:18;10.15;;;3.13;;
37785;SDS011;23625;48.784;9.336;2023-02-27T01:08:44;5.22;;;2.42;;
37785;SDS011;23625;48.784;9.336;2023-02-27T01:11:10;3.72;;;1.65;;
37785;SDS011;23625;48.784;9.336;2023-02-27T01:13:35;5.85;;;1.98;;
37785;SDS011;23625;48.784;9.336;2023-02-27T01:16:01;18.15;;;5.78;;
37785;SDS011;23625;48.784;9.336;2023-02-27T01:18:27;4.93;;;2.17;;
37785;SDS011;23625;48.784;9.336;2023-02-27T01:20:53;4.72;;;1.95;;
37785;SDS011;23625;48.784;9.336;2023-02-27T01:23:19;9.45;;;3.65;;
37785;SDS011;23625;48.784;9.336;2023-02-27T01:25:46;6.53;;;3.30;;
37785;SDS011;23625;48.784;9.336;2023-02-27T01:28:12;8.15;;;3.17;;
37785;SDS011;23625;48.784;9.336;2023-02-27T01:30:38;5.25;;;2.10;;
37785;SDS011;23625;48.784;9.336;2023-02-27T01:33:04;27.85;;;7.22;;
37785;SDS011;23625;48.784;9.336;2023-02-27T01:35:30;13.25;;;4.90;;
37785;SDS011;23625;48.784;9.336;2023-02-27T01:37:56;28.65;;;8.52;;
37785;SDS011;23625;48.784;9.336;2023-02-27T01:40:21;8.32;;;2.75;;
37785;SDS011;23625;48.784;9.336;2023-02-27T01:42:47;19.52;;;6.15;;
37785;SDS011;23625;48.784;9.336;2023-02-27T01:45:23;8.85;;;3.20;;
37785;SDS011;23625;48.784;9.336;2023-02-27T01:47:57;8.23;;;3.40;;
37785;SDS011;23625;48.784;9.336;2023-02-27T01:50:32;7.03;;;2.17;;
37785;SDS011;23625;48.784;9.336;2023-02-27T01:53:00;5.28;;;2.05;;
37785;SDS011;23625;48.784;9.336;2023-02-27T01:55:27;5.72;;;2.22;;
37785;SDS011;23625;48.784;9.336;2023-02-27T01:57:55;2.75;;;1.50;;
37785;SDS011;23625;48.784;9.336;2023-02-27T02:00:21;5.72;;;1.85;;
37785;SDS011;23625;48.784;9.336;2023-02-27T02:03:00;9.63;;;2.75;;
37785;SDS011;23625;48.784;9.336;2023-02-27T02:05:33;5.80;;;1.90;;
37785;SDS011;23625;48.784;9.336;2023-02-27T02:07:59;14.77;;;2.60;;
37785;SDS011;23625;48.784;9.336;2023-02-27T02:10:26;7.55;;;2.97;;
37785;SDS011;23625;48.784;9.336;2023-02-27T02:12:53;11.10;;;2.67;;
37785;SDS011;23625;48.784;9.336;2023-02-27T02:15:20;8.63;;;2.15;;
37785;SDS011;23625;48.784;9.336;2023-02-27T02:23:21;7.63;;;3.40;;
37785;SDS011;23625;48.784;9.336;2023-02-27T02:42:37;7.03;;;2.05;;
37785;SDS011;23625;48.784;9.336;2023-02-27T02:45:24;4.85;;;2.00;;
37785;SDS011;23625;48.784;9.336;2023-02-27T02:48:13;4.82;;;2.78;;
37785;SDS011;23625;48.784;9.336;2023-02-27T02:50:56;2.58;;;1.65;;
37785;SDS011;23625;48.784;9.336;2023-02-27T02:59:19;4.10;;;1.95;;
37785;SDS011;23625;48.784;9.336;2023-02-27T03:04:27;6.32;;;2.38;;
37785;SDS011;23625;48.784;9.336;2023-02-27T03:07:07;5.82;;;2.10;;
37785;SDS011;23625;48.784;9.336;2023-02-27T03:09:38;3.13;;;2.13;;
37785;SDS011;23625;48.784;9.336;2023-02-27T03:12:09;6.47;;;2.53;;
37785;SDS011;23625;48.784;9.336;2023-02-27T03:14:44;7.07;;;2.42;;
37785;SDS011;23625;48.784;9.336;2023-02-27T03:17:18;7.00;;;2.60;;
37785;SDS011;23625;48.784;9.336;2023-02-27T03:19:52;7.65;;;2.83;;
37785;SDS011;23625;48.784;9.336;2023-02-27T03:22:27;6.35;;;2.20;;
37785;SDS011;23625;48.784;9.336;2023-02-27T03:25:03;5.65;;;2.50;;
37785;SDS011;23625;48.784;9.336;2023-02-27T03:27:34;5.72;;;2.15;;
37785;SDS011;23625;48.784;9.336;2023-02-27T03:30:15;5.82;;;2.42;;
37785;SDS011;23625;48.784;9.336;2023-02-27T03:35:56;4.93;;;2.05;;
37785;SDS011;23625;48.784;9.336;2023-02-27T03:43:51;4.80;;;2.58;;
37785;SDS011;23625;48.784;9.336;2023-02-27T03:46:30;7.72;;;2.20;;
37785;SDS011;23625;48.784;9.336;2023-02-27T03:48:56;4.30;;;2.30;;
37785;SDS011;23625;48.784;9.336;2023-02-27T03:51:22;7.07;;;2.30;;
37785;SDS011;23625;48.784;9.336;2023-02-27T03:53:51;8.82;;;2.40;;
37785;SDS011;23625;48.784;9.336;2023-02-27T03:59:22;9.27;;;2.33;;
37785;SDS011;23625;48.784;9.336;2023-02-27T04:01:48;5.95;;;2.20;;
37785;SDS011;23625;48.784;9.336;2023-02-27T04:04:15;7.88;;;2.60;;
37785;SDS011;23625;48.784;9.336;2023-02-27T04:06:43;9.30;;;3.15;;
37785;SDS011;23625;48.784;9.336;2023-02-27T04:15:06;3.90;;;2.53;;
37785;SDS011;23625;48.784;9.336;2023-02-27T04:17:37;5.28;;;2.30;;
37785;SDS011;23625;48.784;9.336;2023-02-27T04:22:48;7.47;;;2.85;;
37785;SDS011;23625;48.784;9.336;2023-02-27T04:33:58;6.13;;;2.83;;
37785;SDS011;23625;48.784;9.336;2023-02-27T04:36:40;8.48;;;3.10;;
37785;SDS011;23625;48.784;9.336;2023-02-27T04:39:14;9.98;;;3.15;;
37785;SDS011;23625;48.784;9.336;2023-02-27T04:41:54;7.20;;;2.58;;
37785;SDS011;23625;48.784;9.336;2023-02-27T04:44:24;10.40;;;3.28;;
37785;SDS011;23625;48.784;9.336;2023-02-27T04:46:51;5.65;;;2.40;;
37785;SDS011;23625;48.784;9.336;2023-02-27T04:49:54;6.38;;;2.97;;
37785;SDS011;23625;48.784;9.336;2023-02-27T04:52:28;7.22;;;2.90;;
37785;SDS011;23625;48.784;9.336;2023-02-27T04:55:13;10.45;;;4.53;;
37785;SDS011;23625;48.784;9.336;2023-02-27T05:00:16;7.10;;;3.60;;
37785;SDS011;23625;48.784;9.336;2023-02-27T05:02:50;7.80;;;3.92;;
37785;SDS011;23625;48.784;9.336;2023-02-27T05:05:37;6.53;;;2.85;;
37785;SDS011;23625;48.784;9.336;2023-02-27T05:08:12;6.97;;;3.78;;
37785;SDS011;23625;48.784;9.336;2023-02-27T05:11:14;28.42;;;10.20;;
37785;SDS011;23625;48.784;9.336;2023-02-27T05:13:54;10.13;;;4.50;;
37785;SDS011;23625;48.784;9.336;2023-02-27T05:16:35;12.95;;;5.57;;
37785;SDS011;23625;48.784;9.336;2023-02-27T05:19:28;13.05;;;4.47;;
37785;SDS011;23625;48.784;9.336;2023-02-27T05:22:10;8.93;;;5.78;;
37785;SDS011;23625;48.784;9.336;2023-02-27T05:27:37;5.50;;;3.45;;
37785;SDS011;23625;48.784;9.336;2023-02-27T05:30:28;12.18;;;4.50;;
37785;SDS011;23625;48.784;9.336;2023-02-27T05:33:33;13.98;;;4.68;;
37785;SDS011;23625;48.784;9.336;2023-02-27T05:38:58;15.38;;;5.28;;
37785;SDS011;23625;48.784;9.336;2023-02-27T05:41:51;10.70;;;4.88;;
37785;SDS011;23625;48.784;9.336;2023-02-27T05:44:17;13.77;;;4.57;;
37785;SDS011;23625;48.784;9.336;2023-02-27T05:47:13;4.60;;;3.05;;
37785;SDS011;23625;48.784;9.336;2023-02-27T05:49:44;6.40;;;3.50;;
37785;SDS011;23625;48.784;9.336;2023-02-27T05:52:15;11.52;;;3.90;;
37785;SDS011;23625;48.784;9.336;2023-02-27T05:54:46;12.27;;;4.05;;
37785;SDS011;23625;48.784;9.336;2023-02-27T05:57:22;11.80;;;4.43;;
37785;SDS011;23625;48.784;9.336;2023-02-27T06:01:02;7.65;;;3.35;;
37785;SDS011;23625;48.784;9.336;2023-02-27T06:03:04;8.35;;;4.28;;
37785;SDS011;23625;48.784;9.336;2023-02-27T06:05:29;10.98;;;3.95;;
37785;SDS011;23625;48.784;9.336;2023-02-27T06:07:55;11.45;;;5.00;;
37785;SDS011;23625;48.784;9.336;2023-02-27T06:10:21;12.60;;;4.93;;
37785;SDS011;23625;48.784;9.336;2023-02-27T06:12:47;15.00;;;4.75;;
37785;SDS011;23625;48.784;9.336;2023-02-27T06:15:13;11.77;;;4.78;;
37785;SDS011;23625;48.784;9.336;2023-02-27T06:17:39;16.10;;;5.53;;
37785;SDS011;23625;48.784;9.336;2023-02-27T06:20:05;10.30;;;4.53;;
37785;SDS011;23625;48.784;9.336;2023-02-27T06:22:32;12.73;;;4.53;;
37785;SDS011;23625;48.784;9.336;2023-02-27T06:24:57;14.32;;;4.35;;
37785;SDS011;23625;48.784;9.336;2023-02-27T06:27:23;14.30;;;4.60;;
37785;SDS011;23625;48.784;9.336;2023-02-27T06:29:50;7.47;;;4.63;;
37785;SDS011;23625;48.784;9.336;2023-02-27T06:32:17;13.02;;;4.80;;
37785;SDS011;23625;48.784;9.336;2023-02-27T06:34:43;8.38;;;4.25;;
37785;SDS011;23625;48.784;9.336;2023-02-27T06:37:09;11.77;;;5.07;;
37785;SDS011;23625;48.784;9.336;2023-02-27T06:39:34;12.00;;;4.80;;
37785;SDS011;23625;48.784;9.336;2023-02-27T06:42:00;12.13;;;5.60;;
37785;SDS011;23625;48.784;9.336;2023-02-27T06:44:26;16.83;;;6.95;;
37785;SDS011;23625;48.784;9.336;2023-02-27T06:46:51;25.13;;;8.60;;
37785;SDS011;23625;48.784;9.336;2023-02-27T06:49:17;17.65;;;6.10;;
37785;SDS011;23625;48.784;9.336;2023-02-27T06:51:43;10.15;;;4.65;;
37785;SDS011;23625;48.784;9.336;2023-02-27T06:54:08;12.73;;;4.82;;
37785;SDS011;23625;48.784;9.336;2023-02-27T06:56:34;11.68;;;4.80;;
37785;SDS011;23625;48.784;9.336;2023-02-27T06:59:00;15.98;;;5.63;;
37785;SDS011;23625;48.784;9.336;2023-02-27T07:01:25;11.57;;;4.68;;
37785;SDS011;23625;48.784;9.336;2023-02-27T07:03:51;17.20;;;5.75;;
37785;SDS011;23625;48.784;9.336;2023-02-27T07:06:16;41.58;;;15.27;;
37785;SDS011;23625;48.784;9.336;2023-02-27T07:08:42;16.58;;;6.18;;
37785;SDS011;23625;48.784;9.336;2023-02-27T07:11:08;13.18;;;7.13;;
37785;SDS011;23625;48.784;9.336;2023-02-27T07:13:33;18.85;;;7.05;;
37785;SDS011;23625;48.784;9.336;2023-02-27T07:16:00;19.50;;;8.30;;
37785;SDS011;23625;48.784;9.336;2023-02-27T07:18:28;14.25;;;6.68;;
37785;SDS011;23625;48.784;9.336;2023-02-27T07:20:54;12.43;;;6.18;;
37785;SDS011;23625;48.784;9.336;2023-02-27T07:23:21;11.70;;;5.72;;
37785;SDS011;23625;48.784;9.336;2023-02-27T07:25:47;9.52;;;4.70;;
37785;SDS011;23625;48.784;9.336;2023-02-27T07:28:13;15.23;;;5.38;;
37785;SDS011;23625;48.784;9.336;2023-02-27T07:30:39;10.57;;;4.93;;
37785;SDS011;23625;48.784;9.336;2023-02-27T07:33:05;9.40;;;4.25;;
37785;SDS011;23625;48.784;9.336;2023-02-27T07:35:31;17.88;;;4.40;;
37785;SDS011;23625;48.784;9.336;2023-02-27T07:37:57;15.48;;;4.93;;
37785;SDS011;23625;48.784;9.336;2023-02-27T07:40:22;11.68;;;4.18;;
37785;SDS011;23625;48.784;9.336;2023-02-27T07:42:48;14.93;;;4.40;;
37785;SDS011;23625;48.784;9.336;2023-02-27T07:45:14;7.05;;;3.88;;
37785;SDS011;23625;48.784;9.336;2023-02-27T07:47:42;16.80;;;4.68;;
37785;SDS011;23625;48.784;9.336;2023-02-27T07:50:08;21.45;;;8.15;;
37785;SDS011;23625;48.784;9.336;2023-02-27T07:52:38;15.15;;;4.55;;
37785;SDS011;23625;48.784;9.336;2023-02-27T07:55:07;9.15;;;4.78;;
37785;SDS011;23625;48.784;9.336;2023-02-27T07:57:34;7.38;;;3.90;;
37785;SDS011;23625;48.784;9.336;2023-02-27T08:00:00;19.85;;;4.95;;
37785;SDS011;23625;48.784;9.336;2023-02-27T08:02:26;12.95;;;3.58;;
37785;SDS011;23625;48.784;9.336;2023-02-27T08:04:51;9.23;;;3.42;;
37785;SDS011;23625;48.784;9.336;2023-02-27T08:07:17;15.80;;;4.15;;
37785;SDS011;23625;48.784;9.336;2023-02-27T08:09:43;15.98;;;3.97;;
37785;SDS011;23625;48.784;9.336;2023-02-27T08:12:08;10.70;;;3.78;;
37785;SDS011;23625;48.784;9.336;2023-02-27T08:14:34;9.65;;;4.10;;
37785;SDS011;23625;48.784;9.336;2023-02-27T08:17:00;15.55;;;4.70;;
37785;SDS011;23625;48.784;9.336;2023-02-27T08:19:25;13.48;;;4.45;;
37785;SDS011;23625;48.784;9.336;2023-02-27T08:21:51;10.85;;;3.28;;
37785;SDS011;23625;48.784;9.336;2023-02-27T08:24:17;10.18;;;3.22;;
37785;SDS011;23625;48.784;9.336;2023-02-27T08:26:42;10.73;;;3.85;;
37785;SDS011;23625;48.784;9.336;2023-02-27T08:29:08;9.85;;;3.00;;
37785;SDS011;23625;48.784;9.336;2023-02-27T08:31:34;9.90;;;3.22;;
37785;SDS011;23625;48.784;9.336;2023-02-27T08:33:59;7.45;;;3.00;;
37785;SDS011;23625;48.784;9.336;2023-02-27T08:36:25;12.63;;;2.83;;
37785;SDS011;23625;48.784;9.336;2023-02-27T08:38:50;15.65;;;3.22;;
37785;SDS011;23625;48.784;9.336;2023-02-27T08:41:16;10.48;;;2.85;;
37785;SDS011;23625;48.784;9.336;2023-02-27T08:43:41;12.10;;;3.30;;
37785;SDS011;23625;48.784;9.336;2023-02-27T08:46:07;7.35;;;3.05;;
37785;SDS011;23625;48.784;9.336;2023-02-27T08:48:32;7.10;;;2.33;;
37785;SDS011;23625;48.784;9.336;2023-02-27T08:50:58;8.40;;;3.80;;
37785;SDS011;23625;48.784;9.336;2023-02-27T08:53:24;7.93;;;2.70;;
37785;SDS011;23625;48.784;9.336;2023-02-27T08:55:50;7.28;;;2.60;;
37785;SDS011;23625;48.784;9.336;2023-02-27T08:58:16;7.03;;;2.50;;
37785;SDS011;23625;48.784;9.336;2023-02-27T09:00:41;11.63;;;2.83;;
37785;SDS011;23625;48.784;9.336;2023-02-27T09:03:07;8.75;;;3.90;;
37785;SDS011;23625;48.784;9.336;2023-02-27T09:05:33;5.40;;;3.17;;
37785;SDS011;23625;48.784;9.336;2023-02-27T09:07:59;6.35;;;2.97;;
37785;SDS011;23625;48.784;9.336;2023-02-27T09:10:26;9.40;;;3.05;;
37785;SDS011;23625;48.784;9.336;2023-02-27T09:12:52;5.68;;;2.85;;
37785;SDS011;23625;48.784;9.336;2023-02-27T09:15:17;10.55;;;4.53;;
37785;SDS011;23625;48.784;9.336;2023-02-27T09:17:43;11.50;;;3.58;;
37785;SDS011;23625;48.784;9.336;2023-02-27T09:20:09;9.48;;;3.30;;
37785;SDS011;23625;48.784;9.336;2023-02-27T09:22:35;17.05;;;3.97;;
37785;SDS011;23625;48.784;9.336;2023-02-27T09:25:01;14.45;;;3.92;;
37785;SDS011;23625;48.784;9.336;2023-02-27T09:27:27;12.15;;;4.68;;
37785;SDS011;23625;48.784;9.336;2023-02-27T09:29:52;37.67;;;8.95;;
37785;SDS011;23625;48.784;9.336;2023-02-27T09:32:20;18.27;;;4.78;;
37785;SDS011;23625;48.784;9.336;2023-02-27T09:34:46;5.78;;;2.83;;
37785;SDS011;23625;48.784;9.336;2023-02-27T09:37:12;6.45;;;2.38;;
37785;SDS011;23625;48.784;9.336;2023-02-27T09:39:39;9.32;;;2.75;;
37785;SDS011;23625;48.784;9.336;2023-02-27T09:44:44;7.68;;;2.80;;
37785;SDS011;23625;48.784;9.336;2023-02-27T09:47:23;7.57;;;2.70;;
37785;SDS011;23625;48.784;9.336;2023-02-27T09:55:28;8.45;;;3.08;;
37785;SDS011;23625;48.784;9.336;2023-02-27T10:01:12;10.23;;;2.40;;
37785;SDS011;23625;48.784;9.336;2023-02-27T10:08:48;6.65;;;2.72;;
37785;SDS011;23625;48.784;9.336;2023-02-27T10:11:42;6.93;;;2.53;;
37785;SDS011;23625;48.784;9.336;2023-02-27T10:17:27;3.03;;;1.80;;
37785;SDS011;23625;48.784;9.336;2023-02-27T10:19:55;5.45;;;2.50;;
37785;SDS011;23625;48.784;9.336;2023-02-27T10:22:26;5.43;;;2.47;;
37785;SDS011;23625;48.784;9.336;2023-02-27T10:24:59;7.15;;;2.65;;
37785;SDS011;23625;48.784;9.336;2023-02-27T10:27:31;5.53;;;2.20;;
37785;SDS011;23625;48.784;9.336;2023-02-27T10:32:46;11.35;;;3.70;;
37785;SDS011;23625;48.784;9.336;2023-02-27T10:38:01;7.82;;;2.78;;
37785;SDS011;23625;48.784;9.336;2023-02-27T10:40:29;3.97;;;1.52;;
37785;SDS011;23625;48.784;9.336;2023-02-27T10:42:58;16.52;;;4.20;;
37785;SDS011;23625;48.784;9.336;2023-02-27T10:45:25;4.95;;;2.10;;
37785;SDS011;23625;48.784;9.336;2023-02-27T10:47:50;2.63;;;1.83;;
37785;SDS011;23625;48.784;9.336;2023-02-27T10:50:20;9.40;;;2.00;;
37785;SDS011;23625;48.784;9.336;2023-02-27T10:52:53;5.28;;;1.83;;
37785;SDS011;23625;48.784;9.336;2023-02-27T10:55:22;5.47;;;1.88;;
37785;SDS011;23625;48.784;9.336;2023-02-27T10:57:56;2.97;;;1.80;;
37785;SDS011;23625;48.784;9.336;2023-02-27T11:00:27;3.58;;;1.60;;
37785;SDS011;23625;48.784;9.336;2023-02-27T11:03:04;2.95;;;1.67;;
37785;SDS011;23625;48.784;9.336;2023-02-27T11:05:31;3.38;;;1.80;;
37785;SDS011;23625;48.784;9.336;2023-02-27T11:08:12;5.15;;;2.25;;
37785;SDS011;23625;48.784;9.336;2023-02-27T11:11:25;12.98;;;3.25;;
37785;SDS011;23625;48.784;9.336;2023-02-27T11:13:51;7.72;;;2.25;;
37785;SDS011;23625;48.784;9.336;2023-02-27T11:16:17;7.93;;;2.38;;
37785;SDS011;23625;48.784;9.336;2023-02-27T11:18:51;5.78;;;2.30;;
37785;SDS011;23625;48.784;9.336;2023-02-27T11:21:20;6.80;;;2.20;;
37785;SDS011;23625;48.784;9.336;2023-02-27T11:24:08;9.90;;;2.28;;
37785;SDS011;23625;48.784;9.336;2023-02-27T11:26:53;4.93;;;2.20;;
37785;SDS011;23625;48.784;9.336;2023-02-27T11:29:21;7.20;;;2.53;;
37785;SDS011;23625;48.784;9.336;2023-02-27T11:31:54;5.70;;;2.55;;
37785;SDS011;23625;48.784;9.336;2023-02-27T11:34:21;7.72;;;2.30;;
37785;SDS011;23625;48.784;9.336;2023-02-27T11:37:01;4.32;;;2.33;;
37785;SDS011;23625;48.784;9.336;2023-02-27T11:39:32;9.15;;;2.15;;
37785;SDS011;23625;48.784;9.336;2023-02-27T11:42:43;8.80;;;2.47;;
37785;SDS011;23625;48.784;9.336;2023-02-27T11:45:00;8.85;;;2.15;;
37785;SDS011;23625;48.784;9.336;2023-02-27T11:47:32;3.63;;;1.75;;
37785;SDS011;23625;48.784;9.336;2023-02-27T11:53:40;2.80;;;1.58;;
37785;SDS011;23625;48.784;9.336;2023-02-27T11:56:28;5.82;;;1.95;;
37785;SDS011;23625;48.784;9.336;2023-02-27T11:59:03;3.45;;;1.70;;
37785;SDS011;23625;48.784;9.336;2023-02-27T12:01:47;4.03;;;1.95;;
37785;SDS011;23625;48.784;9.336;2023-02-27T12:04:24;3.92;;;1.90;;
37785;SDS011;23625;48.784;9.336;2023-02-27T12:06:53;3.00;;;1.75;;
37785;SDS011;23625;48.784;9.336;2023-02-27T12:09:22;4.88;;;1.55;;
37785;SDS011;23625;48.784;9.336;2023-02-27T12:11:51;2.17;;;1.67;;
37785;SDS011;23625;48.784;9.336;2023-02-27T12:14:21;3.85;;;1.60;;
37785;SDS011;23625;48.784;9.336;2023-02-27T12:17:09;7.07;;;2.22;;
37785;SDS011;23625;48.784;9.336;2023-02-27T12:22:21;9.20;;;3.00;;
37785;SDS011;23625;48.784;9.336;2023-02-27T12:24:54;5.57;;;2.72;;
37785;SDS011;23625;48.784;9.336;2023-02-27T12:27:40;12.15;;;4.32;;
37785;SDS011;23625;48.784;9.336;2023-02-27T12:30:15;7.65;;;2.67;;
37785;SDS011;23625;48.784;9.336;2023-02-27T12:35:30;6.20;;;2.45;;
37785;SDS011;23625;48.784;9.336;2023-02-27T12:37:59;4.60;;;2.20;;
37785;SDS011;23625;48.784;9.336;2023-02-27T12:40:29;3.80;;;1.70;;
37785;SDS011;23625;48.784;9.336;2023-02-27T12:46:14;6.65;;;2.85;;
37785;SDS011;23625;48.784;9.336;2023-02-27T12:56:55;7.30;;;2.10;;
37785;SDS011;23625;48.784;9.336;2023-02-27T13:10:43;3.45;;;2.28;;
37785;SDS011;23625;48.784;9.336;2023-02-27T13:13:21;7.47;;;2.75;;
37785;SDS011;23625;48.784;9.336;2023-02-27T13:16:09;4.93;;;2.20;;
37785;SDS011;23625;48.784;9.336;2023-02-27T13:18:57;6.95;;;2.15;;
37785;SDS011;23625;48.784;9.336;2023-02-27T13:24:00;7.15;;;2.65;;
37785;SDS011;23625;48.784;9.336;2023-02-27T13:26:43;5.07;;;2.00;;
37785;SDS011;23625;48.784;9.336;2023-02-27T13:29:17;7.95;;;2.28;;
37785;SDS011;23625;48.784;9.336;2023-02-27T13:35:12;5.93;;;2.55;;
37785;SDS011;23625;48.784;9.336;2023-02-27T13:37:51;8.73;;;2.60;;
37785;SDS011;23625;48.784;9.336;2023-02-27T13:40:27;5.93;;;2.38;;
37785;SDS011;23625;48.784;9.336;2023-02-27T13:42:55;3.22;;;1.70;;
37785;SDS011;23625;48.784;9.336;2023-02-27T13:51:00;11.23;;;3.45;;
37785;SDS011;23625;48.784;9.336;2023-02-27T13:53:26;10.63;;;2.58;;
37785;SDS011;23625;48.784;9.336;2023-02-27T13:56:26;9.75;;;2.78;;
37785;SDS011;23625;48.784;9.336;2023-02-27T13:58:47;12.65;;;4.25;;
37785;SDS011;23625;48.784;9.336;2023-02-27T14:01:15;9.25;;;2.47;;
37785;SDS011;23625;48.784;9.336;2023-02-27T14:03:53;8.50;;;2.25;;
37785;SDS011;23625;48.784;9.336;2023-02-27T14:06:20;3.70;;;1.98;;
37785;SDS011;23625;48.784;9.336;2023-02-27T14:08:48;4.25;;;1.83;;
37785;SDS011;23625;48.784;9.336;2023-02-27T14:19:03;6.60;;;2.60;;
37785;SDS011;23625;48.784;9.336;2023-02-27T14:28:24;20.15;;;3.78;;
37785;SDS011;23625;48.784;9.336;2023-02-27T14:31:28;9.13;;;2.70;;
37785;SDS011;23625;48.784;9.336;2023-02-27T14:33:56;8.23;;;2.63;;
37785;SDS011;23625;48.784;9.336;2023-02-27T14:36:29;5.35;;;1.92;;
37785;SDS011;23625;48.784;9.336;2023-02-27T14:38:59;4.72;;;1.83;;
37785;SDS011;23625;48.784;9.336;2023-02-27T14:44:26;4.13;;;1.77;;
37785;SDS011;23625;48.784;9.336;2023-02-27T14:46:54;5.95;;;1.77;;
37785;SDS011;23625;48.784;9.336;2023-02-27T14:51:48;9.77;;;2.45;;
37785;SDS011;23625;48.784;9.336;2023-02-27T14:54:16;8.18;;;1.98;;
37785;SDS011;23625;48.784;9.336;2023-02-27T14:56:57;7.18;;;1.92;;
37785;SDS011;23625;48.784;9.336;2023-02-27T14:59:25;5.22;;;2.17;;
37785;SDS011;23625;48.784;9.336;2023-02-27T15:01:53;6.32;;;2.03;;
37785;SDS011;23625;48.784;9.336;2023-02-27T15:04:21;10.23;;;3.10;;
37785;SDS011;23625;48.784;9.336;2023-02-27T15:06:50;5.47;;;2.33;;
37785;SDS011;23625;48.784;9.336;2023-02-27T15:09:22;14.90;;;2.63;;
37785;SDS011;23625;48.784;9.336;2023-02-27T15:11:51;16.55;;;2.15;;
37785;SDS011;23625;48.784;9.336;2023-02-27T15:14:26;11.88;;;2.28;;
37785;SDS011;23625;48.784;9.336;2023-02-27T15:16:57;6.28;;;1.95;;
37785;SDS011;23625;48.784;9.336;2023-02-27T15:19:24;6.88;;;1.90;;
37785;SDS011;23625;48.784;9.336;2023-02-27T15:21:57;7.47;;;2.00;;
37785;SDS011;23625;48.784;9.336;2023-02-27T15:24:32;5.15;;;1.83;;
37785;SDS011;23625;48.784;9.336;2023-02-27T15:29:31;5.38;;;2.55;;
37785;SDS011;23625;48.784;9.336;2023-02-27T15:32:02;4.07;;;2.05;;
37785;SDS011;23625;48.784;9.336;2023-02-27T15:34:29;4.40;;;2.38;;
37785;SDS011;23625;48.784;9.336;2023-02-27T15:36:56;2.35;;;1.52;;
37785;SDS011;23625;48.784;9.336;2023-02-27T15:39:23;3.20;;;1.80;;
37785;SDS011;23625;48.784;9.336;2023-02-27T15:41:53;8.65;;;2.63;;
37785;SDS011;23625;48.784;9.336;2023-02-27T15:44:25;4.32;;;2.10;;
37785;SDS011;23625;48.784;9.336;2023-02-27T15:46:53;7.50;;;1.75;;
37785;SDS011;23625;48.784;9.336;2023-02-27T15:49:21;8.27;;;1.92;;
37785;SDS011;23625;48.784;9.336;2023-02-27T15:51:54;6.72;;;2.00;;
37785;SDS011;23625;48.784;9.336;2023-02-27T15:54:30;3.50;;;1.60;;
37785;SDS011;23625;48.784;9.336;2023-02-27T15:56:57;6.55;;;2.33;;
37785;SDS011;23625;48.784;9.336;2023-02-27T15:59:23;4.88;;;2.15;;
37785;SDS011;23625;48.784;9.336;2023-02-27T16:01:49;6.28;;;1.73;;
37785;SDS011;23625;48.784;9.336;2023-02-27T16:04:25;3.80;;;1.98;;
37785;SDS011;23625;48.784;9.336;2023-02-27T16:06:58;3.20;;;1.80;;
37785;SDS011;23625;48.784;9.336;2023-02-27T16:09:31;6.00;;;2.05;;
37785;SDS011;23625;48.784;9.336;2023-02-27T16:12:17;2.42;;;1.50;;
37785;SDS011;23625;48.784;9.336;2023-02-27T16:17:21;7.10;;;2.00;;
37785;SDS011;23625;48.784;9.336;2023-02-27T16:19:49;2.08;;;1.20;;
37785;SDS011;23625;48.784;9.336;2023-02-27T16:22:15;10.70;;;4.50;;
37785;SDS011;23625;48.784;9.336;2023-02-27T16:24:42;5.70;;;1.73;;
37785;SDS011;23625;48.784;9.336;2023-02-27T16:27:21;9.38;;;1.88;;
37785;SDS011;23625;48.784;9.336;2023-02-27T16:29:49;9.82;;;2.45;;
37785;SDS011;23625;48.784;9.336;2023-02-27T16:32:25;6.13;;;2.33;;
37785;SDS011;23625;48.784;9.336;2023-02-27T16:35:06;6.75;;;2.45;;
37785;SDS011;23625;48.784;9.336;2023-02-27T16:37:39;9.18;;;2.78;;
37785;SDS011;23625;48.784;9.336;2023-02-27T16:42:38;8.85;;;2.80;;
37785;SDS011;23625;48.784;9.336;2023-02-27T16:45:04;9.38;;;2.75;;
37785;SDS011;23625;48.784;9.336;2023-02-27T16:47:31;4.95;;;1.45;;
37785;SDS011;23625;48.784;9.336;2023-02-27T16:49:57;18.40;;;4.75;;
37785;SDS011;23625;48.784;9.336;2023-02-27T16:52:22;44.80;;;9.40;;
37785;SDS011;23625;48.784;9.336;2023-02-27T16:54:48;10.30;;;4.07;;
37785;SDS011;23625;48.784;9.336;2023-02-27T16:57:13;11.98;;;3.25;;
37785;SDS011;23625;48.784;9.336;2023-02-27T16:59:41;4.88;;;2.08;;
37785;SDS011;23625;48.784;9.336;2023-02-27T17:02:12;10.57;;;2.58;;
37785;SDS011;23625;48.784;9.336;2023-02-27T17:04:39;5.30;;;2.13;;
37785;SDS011;23625;48.784;9.336;2023-02-27T17:07:09;5.57;;;1.75;;
37785;SDS011;23625;48.784;9.336;2023-02-27T17:09:39;5.32;;;1.70;;
37785;SDS011;23625;48.784;9.336;2023-02-27T17:12:06;6.13;;;1.73;;
37785;SDS011;23625;48.784;9.336;2023-02-27T17:14:32;9.05;;;3.22;;
37785;SDS011;23625;48.784;9.336;2023-02-27T17:16:57;5.53;;;1.67;;
37785;SDS011;23625;48.784;9.336;2023-02-27T17:19:23;4.75;;;2.03;;
37785;SDS011;23625;48.784;9.336;2023-02-27T17:21:49;6.38;;;2.10;;
37785;SDS011;23625;48.784;9.336;2023-02-27T17:24:15;3.63;;;2.00;;
37785;SDS011;23625;48.784;9.336;2023-02-27T17:26:41;2.28;;;1.95;;
37785;SDS011;23625;48.784;9.336;2023-02-27T17:29:06;3.80;;;1.83;;
37785;SDS011;23625;48.784;9.336;2023-02-27T17:31:33;8.55;;;2.35;;
37785;SDS011;23625;48.784;9.336;2023-02-27T17:34:01;7.28;;;2.35;;
37785;SDS011;23625;48.784;9.336;2023-02-27T17:36:27;3.80;;;2.08;;
37785;SDS011;23625;48.784;9.336;2023-02-27T17:38:54;7.10;;;1.95;;
37785;SDS011;23625;48.784;9.336;2023-02-27T17:41:21;8.23;;;2.60;;
37785;SDS011;23625;48.784;9.336;2023-02-27T17:43:54;5.65;;;2.20;;
37785;SDS011;23625;48.784;9.336;2023-02-27T17:46:24;8.18;;;2.60;;